KMGJ/MGJ METAR and TAF weather

Enter ICAO airport designator
Station Type Date Time Source
KMGJ METAR 2022/09/26 07:54 UTC NOAA

KMGJ 260754Z AUTO 23006KT 10SM CLR 12/12 A2960 RMK AO2 SLP024 T01220117


Station Type Date Time Source
KMGJ Decoded METAR 2022/09/26 07:54 UTC NOAA

MONTGOMERY ORANGE CO AIRPORT, NY, United States (KMGJ) 41-31N 074-16W 108M
Sep 26, 2022 - 03:54 AM EDT / 2022.09.26 0754 UTC
Wind: from the SW (230 degrees) at 7 MPH (6 KT):0
Visibility: 10 mile(s):0
Sky conditions: clear
Temperature: 54.0 F (12.2 C)
Dew Point: 53.1 F (11.7 C)
Relative Humidity: 96%
Pressure (altimeter): 29.6 in. Hg (1002 hPa)
ob: KMGJ 260754Z AUTO 23006KT 10SM CLR 12/12 A2960 RMK AO2 SLP024 T01220117
cycle: 8

Station Type Date Time Source
KMGJ TAF UTC NOAA

Error!

Example: see airport list